Time;durP1;ratioP1;P1;durP2;ratioP2;P2;SDS_P1;SDS_P2;PMS_P1;PMS_P2;Temp;Humidity;BMP_temperature;BMP_pressure;BME280_temperature;BME280_humidity;BME280_pressure;Samples;Min_cycle;Max_cycle;Signal;HPM_P1;HPM_P2
2021/09/23 00:00:30;;;;;;;1.90;0.62;;;11.80;99.90;;;;;;4413325;32;20069;-64
2021/09/23 00:05:25;;;;;;;0.60;0.60;;;11.70;99.90;;;;;;4399961;32;20061;-64
2021/09/23 00:07:52;;;;;;;0.80;0.80;;;11.70;99.90;;;;;;4414589;32;20124;-64
2021/09/23 00:10:20;;;;;;;0.45;0.45;;;11.70;99.90;;;;;;4413502;32;20081;-64
2021/09/23 00:12:46;;;;;;;0.55;0.55;;;11.60;99.90;;;;;;4400110;32;20090;-64
2021/09/23 00:15:15;;;;;;;0.65;0.65;;;11.60;99.90;;;;;;4401423;32;20061;-64
2021/09/23 00:17:47;;;;;;;1.27;0.80;;;11.60;99.90;;;;;;4400366;32;20531;-64
2021/09/23 00:20:16;;;;;;;0.50;0.50;;;11.70;99.90;;;;;;4399898;32;20117;-64
2021/09/23 00:22:42;;;;;;;0.30;0.30;;;11.70;99.90;;;;;;4400157;32;20061;-64
2021/09/23 00:25:08;;;;;;;0.65;0.65;;;11.50;99.90;;;;;;4413279;32;20432;-64
2021/09/23 00:27:34;;;;;;;1.55;0.70;;;11.50;99.90;;;;;;4412865;32;20082;-64
2021/09/23 00:29:59;;;;;;;0.60;0.60;;;11.60;99.90;;;;;;4411672;32;20385;-64
2021/09/23 00:32:25;;;;;;;0.70;0.70;;;11.60;99.90;;;;;;4414137;32;20131;-64
2021/09/23 00:34:50;;;;;;;0.52;0.52;;;11.60;99.90;;;;;;4413162;32;20065;-64
2021/09/23 00:37:15;;;;;;;1.48;1.27;;;11.50;99.90;;;;;;4412451;32;20095;-64
2021/09/23 00:39:41;;;;;;;0.40;0.40;;;11.60;99.90;;;;;;4413334;32;20073;-64
2021/09/23 00:42:07;;;;;;;2.62;0.85;;;11.50;99.90;;;;;;4413351;32;20519;-64
2021/09/23 00:44:33;;;;;;;4.68;1.27;;;11.50;99.90;;;;;;4412179;32;20072;-64
2021/09/23 00:46:58;;;;;;;3.92;1.05;;;11.60;99.90;;;;;;4399578;32;20066;-64
2021/09/23 00:49:24;;;;;;;0.40;0.40;;;11.60;99.90;;;;;;4413079;32;20070;-64
2021/09/23 00:51:50;;;;;;;3.78;0.70;;;11.70;99.90;;;;;;4412803;32;20065;-64
2021/09/23 00:54:17;;;;;;;6.97;0.55;;;11.60;99.90;;;;;;4413693;32;20065;-64
2021/09/23 00:56:43;;;;;;;1.05;0.70;;;11.50;99.90;;;;;;4411200;32;20074;-64
2021/09/23 00:59:09;;;;;;;0.50;0.50;;;11.60;99.90;;;;;;4412787;32;20077;-64
2021/09/23 01:01:34;;;;;;;0.88;0.85;;;11.60;99.90;;;;;;4412579;32;20127;-64
2021/09/23 01:04:00;;;;;;;2.72;1.05;;;11.60;99.90;;;;;;4412747;32;20069;-64
2021/09/23 01:06:25;;;;;;;0.70;0.70;;;11.50;99.90;;;;;;4412730;32;20066;-64
2021/09/23 01:08:55;;;;;;;0.57;0.57;;;11.40;99.90;;;;;;4413609;32;20086;-64
2021/09/23 01:11:23;;;;;;;0.65;0.60;;;11.40;99.90;;;;;;4413181;32;20458;-64
2021/09/23 01:13:49;;;;;;;1.67;1.10;;;11.40;99.90;;;;;;4399006;32;20526;-64
2021/09/23 01:16:15;;;;;;;0.40;0.40;;;11.40;99.90;;;;;;4400427;32;20062;-64
2021/09/23 01:18:41;;;;;;;0.50;0.50;;;11.30;99.90;;;;;;4399113;32;20641;-64
2021/09/23 01:21:08;;;;;;;0.60;0.60;;;11.40;99.90;;;;;;4411988;32;20062;-64
2021/09/23 01:23:39;;;;;;;0.57;0.57;;;11.50;99.90;;;;;;4412604;32;20073;-64
2021/09/23 01:26:07;;;;;;;0.65;0.57;;;11.50;99.90;;;;;;4411805;32;20133;-64
2021/09/23 01:28:32;;;;;;;1.62;0.82;;;11.50;99.90;;;;;;4413114;32;20058;-64
2021/09/23 01:30:58;;;;;;;1.90;0.75;;;11.40;99.90;;;;;;4413158;32;20077;-64
2021/09/23 01:33:23;;;;;;;0.50;0.50;;;11.40;99.90;;;;;;4412423;32;20089;-64
2021/09/23 01:35:49;;;;;;;0.47;0.47;;;11.40;99.90;;;;;;4413007;32;20065;-64
2021/09/23 01:38:14;;;;;;;5.25;0.85;;;11.40;99.90;;;;;;4412943;32;20124;-64
2021/09/23 01:40:40;;;;;;;0.98;0.90;;;11.40;99.90;;;;;;4411766;32;20362;-64
2021/09/23 01:43:05;;;;;;;0.85;0.65;;;11.40;99.90;;;;;;4413007;32;20065;-64
2021/09/23 01:45:31;;;;;;;1.00;0.90;;;11.40;99.90;;;;;;4413902;32;20091;-64
2021/09/23 01:47:56;;;;;;;1.65;0.93;;;11.50;99.90;;;;;;4412657;32;20066;-64
2021/09/23 01:50:22;;;;;;;0.68;0.65;;;11.30;99.90;;;;;;4413967;32;20120;-64
2021/09/23 01:52:47;;;;;;;0.50;0.50;;;11.40;99.90;;;;;;4399637;32;20529;-64
2021/09/23 01:55:13;;;;;;;1.10;0.80;;;11.40;99.90;;;;;;4411625;32;20070;-64
2021/09/23 01:57:38;;;;;;;0.50;0.50;;;11.40;99.90;;;;;;4398473;32;20460;-64
2021/09/23 02:00:05;;;;;;;1.40;0.80;;;11.50;99.90;;;;;;4412815;32;20069;-64
2021/09/23 02:02:30;;;;;;;0.57;0.57;;;11.50;99.90;;;;;;4413840;32;20061;-64
2021/09/23 02:04:56;;;;;;;4.85;0.70;;;11.40;99.90;;;;;;4412565;32;20061;-64
2021/09/23 02:07:22;;;;;;;0.45;0.45;;;11.30;99.90;;;;;;4412323;32;20120;-64
2021/09/23 02:09:48;;;;;;;1.15;0.57;;;11.30;99.90;;;;;;4411326;32;20089;-64
2021/09/23 02:12:13;;;;;;;0.45;0.45;;;11.10;99.90;;;;;;4411960;32;20466;-64
2021/09/23 02:14:39;;;;;;;1.75;1.17;;;11.10;99.90;;;;;;4411914;32;20061;-64
2021/09/23 02:17:04;;;;;;;1.52;0.82;;;11.20;99.90;;;;;;4411434;32;20073;-64
2021/09/23 02:19:30;;;;;;;7.32;2.05;;;11.10;99.90;;;;;;4410059;32;20055;-64
2021/09/23 02:21:55;;;;;;;0.40;0.40;;;11.10;99.90;;;;;;4412160;32;20117;-64
2021/09/23 02:24:21;;;;;;;0.88;0.88;;;11.10;99.90;;;;;;4413493;32;20133;-64
2021/09/23 02:26:46;;;;;;;1.87;0.73;;;11.10;99.90;;;;;;4411113;32;20148;-64
2021/09/23 02:29:12;;;;;;;0.70;0.70;;;11.30;99.90;;;;;;4413341;32;20066;-64
2021/09/23 02:31:37;;;;;;;0.73;0.52;;;11.40;99.90;;;;;;4411720;32;20120;-64
2021/09/23 02:34:03;;;;;;;1.92;0.60;;;11.40;99.90;;;;;;4412129;32;20066;-64
2021/09/23 02:36:28;;;;;;;3.78;0.60;;;11.40;99.90;;;;;;4411788;32;20069;-64
2021/09/23 02:38:54;;;;;;;2.00;1.02;;;11.40;99.90;;;;;;4411692;32;20090;-64
2021/09/23 02:41:19;;;;;;;0.52;0.50;;;11.40;99.90;;;;;;4410835;32;20123;-64
2021/09/23 02:43:45;;;;;;;0.60;0.60;;;11.30;99.90;;;;;;4399066;32;20487;-64
2021/09/23 02:46:10;;;;;;;1.95;0.62;;;11.30;99.90;;;;;;4413416;32;20078;-64
2021/09/23 02:48:36;;;;;;;1.55;1.23;;;11.20;99.90;;;;;;4412126;32;20498;-64
2021/09/23 02:51:01;;;;;;;0.40;0.40;;;11.30;99.90;;;;;;4411510;32;20424;-64
2021/09/23 02:53:27;;;;;;;0.70;0.70;;;11.30;99.90;;;;;;4411706;32;20079;-64
2021/09/23 02:55:52;;;;;;;0.40;0.40;;;11.30;99.90;;;;;;4411076;32;20121;-64
2021/09/23 02:58:18;;;;;;;1.00;0.93;;;11.20;99.90;;;;;;4411211;32;20169;-64
2021/09/23 03:00:43;;;;;;;0.50;0.50;;;11.10;99.90;;;;;;4411767;32;20128;-64
2021/09/23 03:03:09;;;;;;;0.40;0.40;;;11.10;99.90;;;;;;4411367;32;20078;-64
2021/09/23 03:05:35;;;;;;;0.93;0.93;;;11.10;99.90;;;;;;4412075;32;20086;-64
2021/09/23 03:08:00;;;;;;;0.65;0.62;;;11.10;99.90;;;;;;4412495;32;20174;-64
2021/09/23 03:10:26;;;;;;;0.80;0.80;;;11.10;99.90;;;;;;4412203;32;20136;-64
2021/09/23 03:12:51;;;;;;;0.62;0.62;;;11.10;99.90;;;;;;4413296;32;20120;-64
2021/09/23 03:15:17;;;;;;;0.62;0.62;;;11.20;99.90;;;;;;4412091;32;20082;-64
2021/09/23 03:17:42;;;;;;;2.90;1.17;;;11.20;99.90;;;;;;4411759;32;20062;-64
2021/09/23 03:20:08;;;;;;;0.57;0.57;;;11.20;99.90;;;;;;4412128;32;20124;-64
2021/09/23 03:22:34;;;;;;;0.52;0.45;;;11.20;99.90;;;;;;4414853;32;20120;-64
2021/09/23 03:25:00;;;;;;;1.35;0.88;;;11.10;99.90;;;;;;4413883;32;20086;-65
2021/09/23 03:27:26;;;;;;;6.07;2.40;;;11.10;99.90;;;;;;4412970;32;20069;-64
2021/09/23 03:29:52;;;;;;;2.65;1.87;;;11.10;99.90;;;;;;4413908;32;20345;-64
2021/09/23 03:32:17;;;;;;;0.62;0.62;;;11.10;99.90;;;;;;4414532;32;20073;-64
2021/09/23 03:34:43;;;;;;;1.83;1.12;;;11.20;99.90;;;;;;4414331;32;20119;-64
2021/09/23 03:37:08;;;;;;;0.43;0.43;;;11.20;99.90;;;;;;4414969;32;20061;-64
2021/09/23 03:39:34;;;;;;;0.88;0.75;;;11.20;99.90;;;;;;4413264;32;20136;-64
2021/09/23 03:41:59;;;;;;;3.67;1.17;;;11.20;99.90;;;;;;4414064;32;20090;-64
2021/09/23 03:44:25;;;;;;;1.83;1.25;;;11.20;99.90;;;;;;4414303;32;20161;-63
2021/09/23 03:46:55;;;;;;;1.40;0.82;;;11.10;99.90;;;;;;4400450;32;20062;-63
2021/09/23 03:49:21;;;;;;;0.97;0.90;;;11.10;99.90;;;;;;4413547;32;20069;-63
2021/09/23 03:51:46;;;;;;;1.67;0.93;;;11.10;99.90;;;;;;4414861;32;20139;-63
2021/09/23 03:54:12;;;;;;;0.73;0.73;;;11.10;99.90;;;;;;4414026;32;20062;-64
2021/09/23 03:56:37;;;;;;;4.28;1.37;;;11.00;99.90;;;;;;4413481;32;20432;-64
2021/09/23 03:59:03;;;;;;;0.68;0.60;;;11.00;99.90;;;;;;4413138;32;20129;-64
2021/09/23 04:01:28;;;;;;;1.15;0.73;;;11.10;99.90;;;;;;4413418;32;20142;-64
2021/09/23 04:03:53;;;;;;;2.50;1.35;;;11.10;99.90;;;;;;4414505;32;20089;-64
2021/09/23 04:06:19;;;;;;;0.62;0.62;;;11.20;99.90;;;;;;4414061;32;20121;-64
2021/09/23 04:08:44;;;;;;;2.90;1.20;;;11.20;99.90;;;;;;4414363;32;20094;-64
2021/09/23 04:11:10;;;;;;;2.05;0.88;;;11.20;99.90;;;;;;4414046;32;20514;-64
2021/09/23 04:13:35;;;;;;;1.87;1.10;;;11.20;99.90;;;;;;4413985;32;20093;-64
2021/09/23 04:16:01;;;;;;;0.88;0.85;;;11.20;99.90;;;;;;4415099;32;20053;-64
2021/09/23 04:18:26;;;;;;;2.87;1.23;;;11.20;99.90;;;;;;4414400;32;20070;-63
2021/09/23 04:20:52;;;;;;;1.10;1.02;;;11.20;99.90;;;;;;4411988;32;20091;-64
2021/09/23 04:23:17;;;;;;;22.17;2.58;;;11.20;99.90;;;;;;4396934;32;20058;-64
2021/09/23 04:25:43;;;;;;;0.77;0.62;;;11.10;99.90;;;;;;4398705;32;20472;-65
2021/09/23 04:28:09;;;;;;;1.95;1.10;;;11.20;99.90;;;;;;4419540;32;20432;-65
2021/09/23 04:30:35;;;;;;;2.97;0.90;;;11.10;99.90;;;;;;4416848;32;20094;-65
2021/09/23 04:33:00;;;;;;;0.57;0.57;;;11.20;99.90;;;;;;4413308;32;20065;-65
2021/09/23 04:35:27;;;;;;;1.27;1.02;;;11.20;99.90;;;;;;4414245;32;20132;-65
2021/09/23 04:37:52;;;;;;;4.78;0.90;;;11.20;99.90;;;;;;4412728;32;20062;-65
2021/09/23 04:40:17;;;;;;;4.95;1.55;;;11.20;99.90;;;;;;4412284;32;20069;-65
2021/09/23 04:42:43;;;;;;;6.20;1.60;;;11.20;99.90;;;;;;4412239;32;20494;-65
2021/09/23 04:45:10;;;;;;;2.92;1.12;;;11.20;99.90;;;;;;4414174;32;20142;-65
2021/09/23 04:47:36;;;;;;;4.68;1.62;;;11.20;99.90;;;;;;4413722;32;20078;-65
2021/09/23 04:50:03;;;;;;;2.97;1.95;;;11.20;99.90;;;;;;4413443;32;20435;-65
2021/09/23 04:52:29;;;;;;;0.73;0.73;;;11.20;99.90;;;;;;4399067;32;20061;-65
2021/09/23 04:54:54;;;;;;;1.30;0.95;;;11.20;99.90;;;;;;4413469;32;20113;-64
2021/09/23 04:57:19;;;;;;;5.28;1.20;;;11.10;99.90;;;;;;4412267;32;20077;-64
2021/09/23 04:59:45;;;;;;;0.88;0.70;;;11.20;99.90;;;;;;4410116;32;20439;-65
2021/09/23 05:02:10;;;;;;;3.50;1.40;;;11.20;99.90;;;;;;4401384;32;20093;-65
2021/09/23 05:04:36;;;;;;;1.30;0.90;;;11.20;99.90;;;;;;4406344;32;20161;-65
2021/09/23 05:07:02;;;;;;;1.75;1.42;;;11.20;99.90;;;;;;4411766;32;20124;-65
2021/09/23 05:09:30;;;;;;;4.32;1.23;;;11.20;99.90;;;;;;4411880;32;20062;-65
2021/09/23 05:11:56;;;;;;;1.77;1.55;;;11.30;99.90;;;;;;4408342;32;20085;-65
2021/09/23 05:14:21;;;;;;;0.90;0.90;;;11.20;99.90;;;;;;4397759;32;20062;-65
2021/09/23 05:16:47;;;;;;;1.15;1.00;;;11.20;99.90;;;;;;4397068;32;20152;-65
2021/09/23 05:19:13;;;;;;;10.75;2.20;;;11.10;99.90;;;;;;4399862;32;20499;-65
2021/09/23 05:21:39;;;;;;;3.70;1.12;;;11.20;99.90;;;;;;4411534;32;20077;-65
2021/09/23 05:24:04;;;;;;;11.27;1.17;;;11.30;99.90;;;;;;4415394;32;20081;-65
2021/09/23 05:26:30;;;;;;;1.12;1.02;;;11.30;99.90;;;;;;4411017;32;20070;-65
2021/09/23 05:28:56;;;;;;;2.83;1.42;;;11.40;99.90;;;;;;4392450;32;20121;-65
2021/09/23 05:31:22;;;;;;;1.98;1.58;;;11.40;99.90;;;;;;4371804;32;20329;-65
2021/09/23 05:33:47;;;;;;;7.55;1.67;;;11.40;99.90;;;;;;4390841;32;20102;-65
2021/09/23 05:36:14;;;;;;;1.83;1.35;;;11.40;99.90;;;;;;4381092;32;20090;-65
2021/09/23 05:38:41;;;;;;;3.37;1.58;;;11.40;99.90;;;;;;4391482;32;20109;-65
2021/09/23 05:41:07;;;;;;;3.10;1.08;;;11.40;99.90;;;;;;4388958;32;20137;-65
2021/09/23 05:43:32;;;;;;;1.73;0.90;;;11.40;99.90;;;;;;4392460;32;20253;-65
2021/09/23 05:45:58;;;;;;;3.17;1.33;;;11.40;99.90;;;;;;4397529;32;20081;-65
2021/09/23 05:48:23;;;;;;;1.00;0.90;;;11.40;99.90;;;;;;4395921;32;20113;-65
2021/09/23 05:50:49;;;;;;;1.15;1.05;;;11.40;99.90;;;;;;4394252;32;20601;-64
2021/09/23 05:53:14;;;;;;;1.80;1.10;;;11.50;99.90;;;;;;4399598;32;20089;-65
2021/09/23 05:55:40;;;;;;;4.15;1.25;;;11.50;99.90;;;;;;4394444;32;20082;-66
2021/09/23 05:58:06;;;;;;;1.50;1.17;;;11.50;99.90;;;;;;4392755;32;20481;-67
2021/09/23 06:00:31;;;;;;;2.15;1.05;;;11.60;99.90;;;;;;4390241;32;20530;-64
2021/09/23 06:02:57;;;;;;;3.05;0.93;;;11.60;99.90;;;;;;4367679;32;20196;-64
2021/09/23 06:05:23;;;;;;;3.20;1.52;;;11.60;99.90;;;;;;4396915;32;20135;-64
2021/09/23 06:07:48;;;;;;;1.55;0.93;;;11.70;99.90;;;;;;4396413;32;20507;-64
2021/09/23 06:10:14;;;;;;;0.90;0.90;;;11.70;99.90;;;;;;4394994;32;20082;-64
2021/09/23 06:12:39;;;;;;;0.90;0.90;;;11.80;99.90;;;;;;4396591;32;20105;-64
2021/09/23 06:15:06;;;;;;;3.40;1.58;;;11.80;99.90;;;;;;4392335;32;20085;-64
2021/09/23 06:17:31;;;;;;;1.50;1.23;;;11.80;99.90;;;;;;4382254;32;20084;-64
2021/09/23 06:19:57;;;;;;;0.88;0.88;;;11.90;99.90;;;;;;4397075;32;21098;-64
2021/09/23 06:22:23;;;;;;;4.37;1.73;;;11.90;99.90;;;;;;4396606;32;20082;-64
2021/09/23 06:24:48;;;;;;;2.40;1.58;;;11.90;99.90;;;;;;4380021;32;112819;-64
2021/09/23 06:27:14;;;;;;;0.75;0.60;;;12.00;99.90;;;;;;4394074;32;20689;-64
2021/09/23 06:29:39;;;;;;;2.47;1.30;;;12.10;99.90;;;;;;4395623;32;20163;-64
2021/09/23 06:32:05;;;;;;;7.07;2.20;;;12.10;99.90;;;;;;4395577;32;20146;-64
2021/09/23 06:34:30;;;;;;;2.83;1.37;;;12.20;99.90;;;;;;4395799;32;20066;-64
2021/09/23 06:36:56;;;;;;;7.18;2.22;;;12.20;99.90;;;;;;4382135;32;20073;-64
2021/09/23 06:39:21;;;;;;;6.45;2.40;;;12.30;99.90;;;;;;4384534;32;20070;-65
2021/09/23 06:41:47;;;;;;;14.77;1.70;;;12.30;99.90;;;;;;4403838;32;20730;-64
2021/09/23 06:44:12;;;;;;;2.58;1.50;;;12.40;99.90;;;;;;4399109;32;20078;-64
2021/09/23 06:46:39;;;;;;;5.25;2.55;;;12.40;99.90;;;;;;4394002;32;20081;-64
2021/09/23 06:49:04;;;;;;;6.37;2.03;;;12.40;99.90;;;;;;4398351;32;21576;-64
2021/09/23 06:51:30;;;;;;;4.45;1.52;;;12.50;99.90;;;;;;4393546;32;20257;-64
2021/09/23 06:53:57;;;;;;;5.50;2.65;;;12.60;99.90;;;;;;4383911;32;20113;-64
2021/09/23 06:56:22;;;;;;;3.00;1.33;;;12.70;99.90;;;;;;4403690;32;20148;-64
2021/09/23 06:58:48;;;;;;;2.65;1.50;;;12.70;99.90;;;;;;4395387;32;20101;-64
2021/09/23 07:01:13;;;;;;;4.78;2.53;;;12.80;99.90;;;;;;4392785;32;20094;-64
2021/09/23 07:03:39;;;;;;;4.62;1.95;;;12.80;99.90;;;;;;4379665;32;20077;-65
2021/09/23 07:06:04;;;;;;;4.78;1.37;;;12.90;99.90;;;;;;4392808;32;20527;-64
2021/09/23 07:08:30;;;;;;;2.95;1.62;;;12.90;99.90;;;;;;4401022;32;20482;-64
2021/09/23 07:10:55;;;;;;;1.92;1.33;;;13.00;99.90;;;;;;4394343;32;20109;-64
2021/09/23 07:13:21;;;;;;;3.97;1.83;;;13.10;99.90;;;;;;4398535;32;20098;-64
2021/09/23 07:15:47;;;;;;;2.65;1.17;;;13.10;99.90;;;;;;4398195;32;20187;-64
2021/09/23 07:18:12;;;;;;;6.87;1.73;;;13.10;99.90;;;;;;4384585;32;20061;-64
2021/09/23 07:20:38;;;;;;;4.55;1.23;;;13.10;99.90;;;;;;4392369;32;20571;-64
2021/09/23 07:23:04;;;;;;;6.43;1.87;;;13.10;99.90;;;;;;4400113;32;20120;-64
2021/09/23 07:25:30;;;;;;;4.87;1.85;;;13.20;99.90;;;;;;4371164;32;20638;-64
2021/09/23 07:27:56;;;;;;;3.42;1.58;;;13.20;99.90;;;;;;4381430;32;20459;-64
2021/09/23 07:30:23;;;;;;;1.83;0.98;;;13.30;99.90;;;;;;4398613;32;20776;-64
2021/09/23 07:32:48;;;;;;;10.48;2.42;;;13.40;99.90;;;;;;4396819;32;20177;-65
2021/09/23 07:35:14;;;;;;;3.80;1.12;;;13.50;99.90;;;;;;4384561;32;20081;-65
2021/09/23 07:37:41;;;;;;;16.90;1.23;;;13.60;99.90;;;;;;4393171;32;20152;-65
2021/09/23 07:40:08;;;;;;;1.23;1.12;;;13.70;99.90;;;;;;4403414;32;20098;-65
2021/09/23 07:42:34;;;;;;;11.05;3.80;;;13.80;99.90;;;;;;4388395;32;20146;-65
2021/09/23 07:45:00;;;;;;;3.90;1.73;;;13.90;99.90;;;;;;4397681;32;20087;-66
2021/09/23 07:47:26;;;;;;;1.67;0.98;;;14.00;99.90;;;;;;4396641;32;20497;-66
2021/09/23 07:49:51;;;;;;;6.30;1.95;;;14.10;99.90;;;;;;4382498;32;20101;-66
2021/09/23 07:52:17;;;;;;;4.62;1.80;;;14.20;99.90;;;;;;4392774;32;20073;-65
2021/09/23 07:54:43;;;;;;;3.45;1.35;;;14.30;99.90;;;;;;4386856;32;20097;-65
2021/09/23 07:57:09;;;;;;;10.68;2.37;;;14.40;99.90;;;;;;4381818;32;20078;-65
2021/09/23 07:59:35;;;;;;;1.98;1.35;;;14.50;99.90;;;;;;4398793;32;20086;-66
2021/09/23 08:02:01;;;;;;;13.15;2.28;;;14.60;99.90;;;;;;4398713;32;20405;-66
2021/09/23 08:04:26;;;;;;;4.95;1.83;;;14.70;99.90;;;;;;4398280;32;20145;-65
2021/09/23 08:06:52;;;;;;;2.60;1.33;;;14.80;99.90;;;;;;4385790;32;20420;-65
2021/09/23 08:09:17;;;;;;;5.47;2.12;;;14.90;99.90;;;;;;4404000;32;20179;-66
2021/09/23 08:11:43;;;;;;;16.12;1.65;;;15.00;99.90;;;;;;4400284;32;20114;-64
2021/09/23 08:14:08;;;;;;;1.52;1.42;;;15.10;99.90;;;;;;4395137;32;20578;-64
2021/09/23 08:16:34;;;;;;;4.07;1.12;;;15.30;99.90;;;;;;4400869;32;20180;-64
2021/09/23 08:18:59;;;;;;;5.32;1.80;;;15.40;99.90;;;;;;4390376;32;20066;-64
2021/09/23 08:21:27;;;;;;;2.70;1.75;;;15.50;99.90;;;;;;4393504;32;20078;-64
2021/09/23 08:23:53;;;;;;;14.73;2.10;;;15.70;99.90;;;;;;4385739;32;20768;-64
2021/09/23 08:26:18;;;;;;;4.50;1.00;;;15.90;99.90;;;;;;4405900;32;20144;-64
2021/09/23 08:28:44;;;;;;;5.07;2.37;;;15.90;99.90;;;;;;4392828;32;20081;-65
2021/09/23 08:31:15;;;;;;;1.25;0.70;;;16.00;99.90;;;;;;4396708;32;20195;-64
2021/09/23 08:33:40;;;;;;;2.87;1.12;;;16.00;99.90;;;;;;4398106;32;20074;-64
2021/09/23 08:36:06;;;;;;;1.40;0.90;;;16.00;99.90;;;;;;4396425;32;20152;-64
2021/09/23 08:38:31;;;;;;;7.68;1.70;;;16.00;99.90;;;;;;4401246;32;20654;-64
2021/09/23 08:40:57;;;;;;;2.17;1.25;;;16.00;99.90;;;;;;4400478;32;20089;-64
2021/09/23 08:43:22;;;;;;;1.02;0.90;;;16.00;99.90;;;;;;4394925;32;20142;-64
2021/09/23 08:45:48;;;;;;;5.18;1.10;;;16.00;99.90;;;;;;4395165;32;20439;-64
2021/09/23 08:48:15;;;;;;;1.52;1.00;;;16.00;99.90;;;;;;4398990;32;20538;-64
2021/09/23 08:50:41;;;;;;;5.43;1.70;;;16.00;99.90;;;;;;4380150;32;20782;-64
2021/09/23 08:53:06;;;;;;;1.17;1.08;;;16.00;99.90;;;;;;4396628;32;20077;-65
2021/09/23 08:55:33;;;;;;;10.35;0.90;;;16.00;99.90;;;;;;4380694;32;20516;-65
2021/09/23 08:58:03;;;;;;;0.85;0.73;;;16.00;99.90;;;;;;4382690;32;20226;-65
2021/09/23 09:00:29;;;;;;;0.50;0.50;;;16.00;99.90;;;;;;4397392;32;20061;-65
2021/09/23 09:03:00;;;;;;;1.95;1.35;;;16.00;99.90;;;;;;4397304;32;20150;-65
2021/09/23 09:05:26;;;;;;;0.88;0.70;;;16.10;99.90;;;;;;4397738;32;20134;-65
2021/09/23 09:08:01;;;;;;;1.52;1.00;;;16.10;99.90;;;;;;4386721;32;20306;-65
2021/09/23 09:10:27;;;;;;;0.95;0.68;;;16.20;99.90;;;;;;4400184;32;20867;-64
2021/09/23 09:12:52;;;;;;;1.60;0.85;;;16.30;99.90;;;;;;4378791;32;20198;-64
2021/09/23 09:15:28;;;;;;;1.40;0.90;;;16.40;99.90;;;;;;4386498;32;20177;-65
2021/09/23 09:17:53;;;;;;;1.85;1.02;;;16.50;99.90;;;;;;4393375;32;20526;-65
2021/09/23 09:20:19;;;;;;;6.07;0.98;;;16.60;99.90;;;;;;4392236;32;20077;-65
2021/09/23 09:22:44;;;;;;;0.93;0.85;;;16.70;99.90;;;;;;4393625;32;20085;-66
2021/09/23 09:25:12;;;;;;;15.40;1.50;;;16.70;99.90;;;;;;4398437;32;20182;-65
2021/09/23 09:27:44;;;;;;;1.45;0.73;;;16.80;99.90;;;;;;4393175;32;20169;-66
2021/09/23 09:30:13;;;;;;;0.68;0.68;;;16.90;99.90;;;;;;4396993;32;20061;-66
2021/09/23 09:32:43;;;;;;;0.80;0.80;;;16.90;99.90;;;;;;4386844;32;20081;-66
2021/09/23 09:35:12;;;;;;;8.82;1.08;;;17.00;99.90;;;;;;4400276;32;20078;-66
2021/09/23 09:37:40;;;;;;;2.33;1.12;;;17.10;99.90;;;;;;4401771;32;20444;-65
2021/09/23 09:40:10;;;;;;;0.77;0.77;;;17.20;99.90;;;;;;4370878;32;20081;-65
2021/09/23 09:42:41;;;;;;;10.37;1.03;;;17.20;99.90;;;;;;4383953;32;20081;-65
2021/09/23 09:45:07;;;;;;;2.67;1.35;;;17.30;99.90;;;;;;4386444;32;20073;-65
2021/09/23 09:47:33;;;;;;;0.70;0.70;;;17.30;99.90;;;;;;4400992;32;20070;-65
2021/09/23 09:50:10;;;;;;;0.68;0.68;;;17.30;99.90;;;;;;4396625;32;20102;-65
2021/09/23 09:52:35;;;;;;;2.92;1.10;;;17.40;99.90;;;;;;4399174;32;20820;-65
2021/09/23 09:55:06;;;;;;;2.37;1.42;;;17.50;99.90;;;;;;4400163;32;20077;-66
2021/09/23 09:57:32;;;;;;;3.35;1.23;;;17.60;99.90;;;;;;4398775;32;20074;-65
2021/09/23 09:59:59;;;;;;;0.70;0.70;;;17.70;99.90;;;;;;4391343;32;20118;-65
2021/09/23 10:02:27;;;;;;;8.88;0.82;;;17.70;99.90;;;;;;4395023;32;20070;-65
2021/09/23 10:04:53;;;;;;;6.22;0.52;;;17.70;99.90;;;;;;4400466;32;20387;-64
2021/09/23 10:07:21;;;;;;;4.85;0.73;;;17.80;99.90;;;;;;4397015;32;20308;-64
2021/09/23 10:09:47;;;;;;;1.85;1.42;;;17.80;99.90;;;;;;4397052;32;20199;-65
2021/09/23 10:12:12;;;;;;;0.70;0.70;;;17.80;99.90;;;;;;4390010;32;20145;-65
2021/09/23 10:14:42;;;;;;;1.37;0.95;;;17.90;99.90;;;;;;4398233;32;20100;-65
2021/09/23 10:17:08;;;;;;;5.75;0.60;;;17.90;99.90;;;;;;4397149;32;20074;-65
2021/09/23 10:19:34;;;;;;;0.45;0.45;;;18.00;99.90;;;;;;4400710;32;20124;-64
2021/09/23 10:22:01;;;;;;;1.30;0.70;;;18.10;99.90;;;;;;4396494;32;20110;-66
2021/09/23 10:24:27;;;;;;;0.65;0.65;;;18.20;99.90;;;;;;4394312;32;20073;-65
2021/09/23 10:26:53;;;;;;;1.70;0.80;;;18.30;99.90;;;;;;4394711;32;20164;-65
2021/09/23 10:29:20;;;;;;;0.80;0.80;;;18.40;99.90;;;;;;4396681;32;20080;-65
2021/09/23 10:31:47;;;;;;;2.90;0.60;;;18.40;99.90;;;;;;4394884;32;20095;-65
2021/09/23 10:34:13;;;;;;;2.85;1.17;;;18.40;99.90;;;;;;4397417;32;20089;-65
2021/09/23 10:36:41;;;;;;;1.08;0.75;;;18.50;99.90;;;;;;4404070;32;20077;-65
2021/09/23 10:39:08;;;;;;;3.28;1.55;;;18.50;99.90;;;;;;4404742;32;20699;-66
2021/09/23 10:41:37;;;;;;;2.03;0.80;;;18.50;99.90;;;;;;4387123;32;20684;-67
2021/09/23 10:44:04;;;;;;;0.93;0.73;;;18.50;99.90;;;;;;4395449;32;20211;-67
2021/09/23 10:46:30;;;;;;;0.68;0.68;;;18.40;99.90;;;;;;4399499;32;20086;-67
2021/09/23 10:48:56;;;;;;;0.57;0.57;;;18.40;99.90;;;;;;4393752;32;20386;-67
2021/09/23 10:51:23;;;;;;;0.60;0.60;;;18.50;99.90;;;;;;4397090;32;20578;-67
2021/09/23 10:53:53;;;;;;;0.93;0.52;;;18.60;99.90;;;;;;4393778;32;20185;-66
2021/09/23 10:56:20;;;;;;;0.40;0.40;;;18.50;99.90;;;;;;4380772;32;20097;-66
2021/09/23 10:58:48;;;;;;;0.40;0.40;;;18.50;99.90;;;;;;4395710;32;20082;-66
2021/09/23 11:01:30;;;;;;;0.40;0.40;;;18.50;99.90;;;;;;4386145;32;20078;-66
2021/09/23 11:03:59;;;;;;;3.50;0.73;;;18.50;99.90;;;;;;4385737;32;20069;-66
2021/09/23 11:06:35;;;;;;;0.45;0.45;;;18.50;99.90;;;;;;4398334;32;20074;-66
2021/09/23 11:09:18;;;;;;;0.50;0.50;;;18.60;99.90;;;;;;4402321;32;20074;-66
2021/09/23 11:11:53;;;;;;;1.05;0.62;;;18.70;99.90;;;;;;4401967;32;20237;-66
2021/09/23 11:14:20;;;;;;;0.95;0.77;;;18.90;99.90;;;;;;4389775;32;20058;-66
2021/09/23 11:16:48;;;;;;;2.72;0.95;;;19.00;99.90;;;;;;4408418;32;20077;-65
2021/09/23 11:19:17;;;;;;;0.95;0.40;;;19.00;99.90;;;;;;4410247;32;20140;-66
2021/09/23 11:21:43;;;;;;;0.50;0.50;;;19.00;99.90;;;;;;4384998;32;20096;-70
2021/09/23 11:24:10;;;;;;;0.93;0.50;;;19.00;99.90;;;;;;4398786;32;20365;-66
2021/09/23 11:26:36;;;;;;;0.37;0.37;;;19.00;99.90;;;;;;4384294;32;20079;-66
2021/09/23 11:29:02;;;;;;;3.03;0.82;;;19.00;99.90;;;;;;4403170;32;20072;-66
2021/09/23 11:31:45;;;;;;;3.03;0.55;;;19.10;99.90;;;;;;4386893;32;20073;-67
2021/09/23 11:34:11;;;;;;;0.47;0.43;;;19.30;99.90;;;;;;4405532;32;20416;-67
2021/09/23 11:36:41;;;;;;;2.50;1.25;;;19.50;99.90;;;;;;4404664;32;20077;-67
2021/09/23 11:39:15;;;;;;;;;;;19.60;99.90;;;;;;4399374;32;20081;-66
2021/09/23 11:41:40;;;;;;;13.90;0.85;;;19.70;99.90;;;;;;4399360;32;20002;-66
2021/09/23 11:44:22;;;;;;;1.05;0.95;;;19.80;99.90;;;;;;4396726;32;20077;-67
2021/09/23 11:46:56;;;;;;;3.53;1.52;;;19.70;99.90;;;;;;4400163;32;20086;-65
2021/09/23 11:49:21;;;;;;;3.60;0.98;;;19.70;99.90;;;;;;4402651;32;20468;-65
2021/09/23 11:51:48;;;;;;;0.30;0.30;;;19.60;99.90;;;;;;4402561;32;20104;-65
2021/09/23 11:54:19;;;;;;;1.75;0.93;;;19.60;99.90;;;;;;4397566;32;20151;-66
2021/09/23 11:56:45;;;;;;;0.50;0.50;;;19.60;99.90;;;;;;4403530;32;20066;-65
2021/09/23 11:59:19;;;;;;;0.20;0.20;;;19.70;99.90;;;;;;4390803;32;20532;-66
2021/09/23 12:01:44;;;;;;;0.20;0.20;;;19.80;99.90;;;;;;4397314;32;20113;-65
2021/09/23 12:04:12;;;;;;;0.28;0.28;;;19.80;99.90;;;;;;4404138;32;20065;-66
2021/09/23 12:06:38;;;;;;;0.40;0.40;;;19.70;99.90;;;;;;4398401;32;20086;-65
2021/09/23 12:09:09;;;;;;;0.20;0.20;;;19.70;99.90;;;;;;4405100;32;20145;-66
2021/09/23 12:11:34;;;;;;;0.20;0.20;;;19.70;99.90;;;;;;4385709;32;20554;-66
2021/09/23 12:14:06;;;;;;;0.20;0.20;;;19.70;99.90;;;;;;4389896;32;20124;-65
2021/09/23 12:16:32;;;;;;;2.60;1.05;;;19.60;99.90;;;;;;4383703;32;20105;-66
2021/09/23 12:18:58;;;;;;;0.45;0.30;;;19.60;99.90;;;;;;4399133;32;20151;-65
2021/09/23 12:21:25;;;;;;;0.30;0.30;;;19.60;99.90;;;;;;4388324;32;20515;-67
2021/09/23 12:23:53;;;;;;;0.40;0.40;;;19.50;99.90;;;;;;4401699;32;20088;-67
2021/09/23 12:26:40;;;;;;;0.20;0.20;;;19.50;99.90;;;;;;4399925;32;20453;-67
2021/09/23 12:29:09;;;;;;;0.30;0.30;;;19.50;99.90;;;;;;4386336;32;20066;-65
2021/09/23 12:31:40;;;;;;;0.32;0.32;;;19.60;99.90;;;;;;4399881;32;20153;-65
2021/09/23 12:34:10;;;;;;;0.32;0.32;;;19.60;99.90;;;;;;4384257;32;20143;-65
2021/09/23 12:36:38;;;;;;;0.25;0.25;;;19.70;99.90;;;;;;4396752;32;20106;-65
2021/09/23 12:39:11;;;;;;;0.20;0.20;;;19.70;99.90;;;;;;4403663;32;20078;-65
2021/09/23 12:41:38;;;;;;;0.30;0.30;;;19.60;99.90;;;;;;4402215;32;20089;-65
2021/09/23 12:44:05;;;;;;;0.65;0.37;;;19.50;99.90;;;;;;4395926;32;20167;-66